sensor_id;sensor_type;location;lat;lon;timestamp;P1;durP1;ratioP1;P2;durP2;ratioP2
26319;SDS011;14024;52.226;5.200;2022-07-04T00:00:09;10.32;;;3.45;;
26319;SDS011;14024;52.226;5.200;2022-07-04T00:02:36;10.07;;;3.17;;
26319;SDS011;14024;52.226;5.200;2022-07-04T00:05:03;8.18;;;3.63;;
26319;SDS011;14024;52.226;5.200;2022-07-04T00:07:29;6.00;;;3.03;;
26319;SDS011;14024;52.226;5.200;2022-07-04T00:09:55;6.32;;;3.20;;
26319;SDS011;14024;52.226;5.200;2022-07-04T00:12:21;12.00;;;3.97;;
26319;SDS011;14024;52.226;5.200;2022-07-04T00:14:47;10.10;;;3.97;;
26319;SDS011;14024;52.226;5.200;2022-07-04T00:17:12;11.00;;;3.90;;
26319;SDS011;14024;52.226;5.200;2022-07-04T00:19:38;6.80;;;3.50;;
26319;SDS011;14024;52.226;5.200;2022-07-04T00:22:04;4.57;;;3.42;;
26319;SDS011;14024;52.226;5.200;2022-07-04T00:24:30;12.80;;;5.32;;
26319;SDS011;14024;52.226;5.200;2022-07-04T00:26:56;7.43;;;3.80;;
26319;SDS011;14024;52.226;5.200;2022-07-04T00:29:22;11.43;;;3.70;;
26319;SDS011;14024;52.226;5.200;2022-07-04T00:31:48;12.23;;;4.05;;
26319;SDS011;14024;52.226;5.200;2022-07-04T00:34:14;7.88;;;3.72;;
26319;SDS011;14024;52.226;5.200;2022-07-04T00:36:40;12.50;;;3.70;;
26319;SDS011;14024;52.226;5.200;2022-07-04T00:39:07;10.60;;;3.58;;
26319;SDS011;14024;52.226;5.200;2022-07-04T00:41:33;10.23;;;3.33;;
26319;SDS011;14024;52.226;5.200;2022-07-04T00:44:00;6.85;;;3.33;;
26319;SDS011;14024;52.226;5.200;2022-07-04T00:46:27;11.40;;;4.20;;
26319;SDS011;14024;52.226;5.200;2022-07-04T00:48:53;10.95;;;3.80;;
26319;SDS011;14024;52.226;5.200;2022-07-04T00:51:19;5.97;;;3.45;;
26319;SDS011;14024;52.226;5.200;2022-07-04T00:53:45;8.23;;;3.75;;
26319;SDS011;14024;52.226;5.200;2022-07-04T00:56:11;6.20;;;4.10;;
26319;SDS011;14024;52.226;5.200;2022-07-04T00:58:37;11.30;;;4.45;;
26319;SDS011;14024;52.226;5.200;2022-07-04T01:01:03;8.93;;;4.32;;
26319;SDS011;14024;52.226;5.200;2022-07-04T01:03:29;8.65;;;4.38;;
26319;SDS011;14024;52.226;5.200;2022-07-04T01:05:55;8.30;;;4.75;;
26319;SDS011;14024;52.226;5.200;2022-07-04T01:08:21;8.25;;;4.40;;
26319;SDS011;14024;52.226;5.200;2022-07-04T01:10:47;10.07;;;4.65;;
26319;SDS011;14024;52.226;5.200;2022-07-04T01:13:20;11.18;;;4.47;;
26319;SDS011;14024;52.226;5.200;2022-07-04T01:15:46;7.45;;;4.32;;
26319;SDS011;14024;52.226;5.200;2022-07-04T01:18:12;9.65;;;4.40;;
26319;SDS011;14024;52.226;5.200;2022-07-04T01:20:38;9.13;;;4.18;;
26319;SDS011;14024;52.226;5.200;2022-07-04T01:23:04;11.40;;;5.03;;
26319;SDS011;14024;52.226;5.200;2022-07-04T01:25:31;11.40;;;4.68;;
26319;SDS011;14024;52.226;5.200;2022-07-04T01:28:01;10.60;;;4.75;;
26319;SDS011;14024;52.226;5.200;2022-07-04T01:30:27;10.43;;;4.32;;
26319;SDS011;14024;52.226;5.200;2022-07-04T01:32:54;10.88;;;4.75;;
26319;SDS011;14024;52.226;5.200;2022-07-04T01:35:20;12.23;;;4.40;;
26319;SDS011;14024;52.226;5.200;2022-07-04T01:37:46;10.02;;;4.18;;
26319;SDS011;14024;52.226;5.200;2022-07-04T01:40:12;11.55;;;5.18;;
26319;SDS011;14024;52.226;5.200;2022-07-04T01:42:39;13.38;;;4.88;;
26319;SDS011;14024;52.226;5.200;2022-07-04T01:45:05;10.55;;;4.82;;
26319;SDS011;14024;52.226;5.200;2022-07-04T01:47:32;12.30;;;4.65;;
26319;SDS011;14024;52.226;5.200;2022-07-04T01:49:58;10.75;;;5.40;;
26319;SDS011;14024;52.226;5.200;2022-07-04T01:52:24;10.68;;;5.32;;
26319;SDS011;14024;52.226;5.200;2022-07-04T01:54:50;10.98;;;4.95;;
26319;SDS011;14024;52.226;5.200;2022-07-04T01:57:16;7.70;;;4.88;;
26319;SDS011;14024;52.226;5.200;2022-07-04T01:59:42;6.78;;;4.15;;
26319;SDS011;14024;52.226;5.200;2022-07-04T02:02:27;10.90;;;4.97;;
26319;SDS011;14024;52.226;5.200;2022-07-04T02:04:53;8.73;;;4.85;;
26319;SDS011;14024;52.226;5.200;2022-07-04T02:07:19;11.88;;;5.10;;
26319;SDS011;14024;52.226;5.200;2022-07-04T02:09:45;12.15;;;5.25;;
26319;SDS011;14024;52.226;5.200;2022-07-04T02:12:11;20.65;;;5.85;;
26319;SDS011;14024;52.226;5.200;2022-07-04T02:14:55;16.38;;;4.90;;
26319;SDS011;14024;52.226;5.200;2022-07-04T02:17:21;14.25;;;4.85;;
26319;SDS011;14024;52.226;5.200;2022-07-04T02:19:47;13.90;;;5.15;;
26319;SDS011;14024;52.226;5.200;2022-07-04T02:22:14;10.48;;;4.82;;
26319;SDS011;14024;52.226;5.200;2022-07-04T02:24:40;9.23;;;4.72;;
26319;SDS011;14024;52.226;5.200;2022-07-04T02:27:06;9.68;;;4.35;;
26319;SDS011;14024;52.226;5.200;2022-07-04T02:29:33;13.18;;;4.78;;
26319;SDS011;14024;52.226;5.200;2022-07-04T02:31:59;10.35;;;4.30;;
26319;SDS011;14024;52.226;5.200;2022-07-04T02:34:25;10.82;;;4.80;;
26319;SDS011;14024;52.226;5.200;2022-07-04T02:36:51;8.23;;;4.78;;
26319;SDS011;14024;52.226;5.200;2022-07-04T02:39:17;10.82;;;4.40;;
26319;SDS011;14024;52.226;5.200;2022-07-04T02:41:43;9.75;;;5.38;;
26319;SDS011;14024;52.226;5.200;2022-07-04T02:44:09;12.80;;;4.75;;
26319;SDS011;14024;52.226;5.200;2022-07-04T02:46:35;9.05;;;4.65;;
26319;SDS011;14024;52.226;5.200;2022-07-04T02:49:02;9.80;;;4.85;;
26319;SDS011;14024;52.226;5.200;2022-07-04T02:51:28;11.48;;;5.65;;
26319;SDS011;14024;52.226;5.200;2022-07-04T02:53:54;12.32;;;5.15;;
26319;SDS011;14024;52.226;5.200;2022-07-04T02:56:20;7.25;;;4.60;;
26319;SDS011;14024;52.226;5.200;2022-07-04T02:58:46;7.97;;;5.25;;
26319;SDS011;14024;52.226;5.200;2022-07-04T03:01:12;8.88;;;4.63;;
26319;SDS011;14024;52.226;5.200;2022-07-04T03:03:41;9.07;;;5.30;;
26319;SDS011;14024;52.226;5.200;2022-07-04T03:06:07;11.38;;;5.63;;
26319;SDS011;14024;52.226;5.200;2022-07-04T03:08:34;9.27;;;5.45;;
26319;SDS011;14024;52.226;5.200;2022-07-04T03:11:00;16.08;;;5.80;;
26319;SDS011;14024;52.226;5.200;2022-07-04T03:13:26;12.75;;;5.65;;
26319;SDS011;14024;52.226;5.200;2022-07-04T03:15:52;12.50;;;5.55;;
26319;SDS011;14024;52.226;5.200;2022-07-04T03:18:18;12.75;;;6.22;;
26319;SDS011;14024;52.226;5.200;2022-07-04T03:20:44;11.75;;;6.13;;
26319;SDS011;14024;52.226;5.200;2022-07-04T03:23:11;10.02;;;5.78;;
26319;SDS011;14024;52.226;5.200;2022-07-04T03:25:37;12.88;;;5.80;;
26319;SDS011;14024;52.226;5.200;2022-07-04T03:28:03;11.13;;;6.00;;
26319;SDS011;14024;52.226;5.200;2022-07-04T03:30:29;18.48;;;6.20;;
26319;SDS011;14024;52.226;5.200;2022-07-04T03:32:55;11.90;;;6.43;;
26319;SDS011;14024;52.226;5.200;2022-07-04T03:35:21;12.30;;;6.10;;
26319;SDS011;14024;52.226;5.200;2022-07-04T03:37:47;13.52;;;6.60;;
26319;SDS011;14024;52.226;5.200;2022-07-04T03:40:13;14.45;;;6.43;;
26319;SDS011;14024;52.226;5.200;2022-07-04T03:42:39;10.48;;;6.20;;
26319;SDS011;14024;52.226;5.200;2022-07-04T03:45:05;10.32;;;6.30;;
26319;SDS011;14024;52.226;5.200;2022-07-04T03:47:31;16.92;;;7.00;;
26319;SDS011;14024;52.226;5.200;2022-07-04T03:49:58;13.10;;;6.75;;
26319;SDS011;14024;52.226;5.200;2022-07-04T03:52:24;11.52;;;6.63;;
26319;SDS011;14024;52.226;5.200;2022-07-04T03:54:50;15.40;;;7.13;;
26319;SDS011;14024;52.226;5.200;2022-07-04T03:57:16;13.82;;;6.82;;
26319;SDS011;14024;52.226;5.200;2022-07-04T03:59:42;12.25;;;6.07;;
26319;SDS011;14024;52.226;5.200;2022-07-04T04:02:09;15.48;;;6.40;;
26319;SDS011;14024;52.226;5.200;2022-07-04T04:04:35;10.73;;;6.15;;
26319;SDS011;14024;52.226;5.200;2022-07-04T04:07:19;12.13;;;6.18;;
26319;SDS011;14024;52.226;5.200;2022-07-04T04:09:45;15.48;;;6.93;;
26319;SDS011;14024;52.226;5.200;2022-07-04T04:12:11;15.23;;;6.63;;
26319;SDS011;14024;52.226;5.200;2022-07-04T04:14:37;10.88;;;6.05;;
26319;SDS011;14024;52.226;5.200;2022-07-04T04:17:03;10.45;;;6.20;;
26319;SDS011;14024;52.226;5.200;2022-07-04T04:19:29;12.52;;;6.40;;
26319;SDS011;14024;52.226;5.200;2022-07-04T04:21:55;12.25;;;5.55;;
26319;SDS011;14024;52.226;5.200;2022-07-04T04:24:21;12.02;;;6.93;;
26319;SDS011;14024;52.226;5.200;2022-07-04T04:26:47;15.68;;;6.38;;
26319;SDS011;14024;52.226;5.200;2022-07-04T04:29:13;8.50;;;5.78;;
26319;SDS011;14024;52.226;5.200;2022-07-04T04:31:39;15.93;;;6.75;;
26319;SDS011;14024;52.226;5.200;2022-07-04T04:34:05;17.52;;;6.43;;
26319;SDS011;14024;52.226;5.200;2022-07-04T04:36:31;11.77;;;6.25;;
26319;SDS011;14024;52.226;5.200;2022-07-04T04:38:57;16.15;;;6.53;;
26319;SDS011;14024;52.226;5.200;2022-07-04T04:41:23;15.52;;;7.35;;
26319;SDS011;14024;52.226;5.200;2022-07-04T04:43:49;15.38;;;6.70;;
26319;SDS011;14024;52.226;5.200;2022-07-04T04:46:15;13.88;;;6.60;;
26319;SDS011;14024;52.226;5.200;2022-07-04T04:48:41;19.85;;;7.03;;
26319;SDS011;14024;52.226;5.200;2022-07-04T04:51:07;16.65;;;7.45;;
26319;SDS011;14024;52.226;5.200;2022-07-04T04:53:33;26.10;;;7.25;;
26319;SDS011;14024;52.226;5.200;2022-07-04T04:55:59;10.93;;;6.97;;
26319;SDS011;14024;52.226;5.200;2022-07-04T04:58:25;14.45;;;6.70;;
26319;SDS011;14024;52.226;5.200;2022-07-04T05:00:51;13.25;;;7.28;;
26319;SDS011;14024;52.226;5.200;2022-07-04T05:03:17;15.32;;;7.22;;
26319;SDS011;14024;52.226;5.200;2022-07-04T05:05:44;19.10;;;7.75;;
26319;SDS011;14024;52.226;5.200;2022-07-04T05:08:10;18.55;;;8.80;;
26319;SDS011;14024;52.226;5.200;2022-07-04T05:10:37;15.68;;;7.65;;
26319;SDS011;14024;52.226;5.200;2022-07-04T05:13:03;16.65;;;7.80;;
26319;SDS011;14024;52.226;5.200;2022-07-04T05:15:29;20.33;;;8.43;;
26319;SDS011;14024;52.226;5.200;2022-07-04T05:17:55;18.58;;;8.27;;
26319;SDS011;14024;52.226;5.200;2022-07-04T05:20:21;23.60;;;7.78;;
26319;SDS011;14024;52.226;5.200;2022-07-04T05:22:47;20.88;;;9.35;;
26319;SDS011;14024;52.226;5.200;2022-07-04T05:25:13;20.45;;;8.18;;
26319;SDS011;14024;52.226;5.200;2022-07-04T05:27:38;15.18;;;8.50;;
26319;SDS011;14024;52.226;5.200;2022-07-04T05:30:05;19.25;;;8.90;;
26319;SDS011;14024;52.226;5.200;2022-07-04T05:32:31;16.13;;;8.50;;
26319;SDS011;14024;52.226;5.200;2022-07-04T05:34:57;16.77;;;8.07;;
26319;SDS011;14024;52.226;5.200;2022-07-04T05:37:23;18.17;;;8.30;;
26319;SDS011;14024;52.226;5.200;2022-07-04T05:39:49;20.42;;;7.93;;
26319;SDS011;14024;52.226;5.200;2022-07-04T05:42:16;13.13;;;7.20;;
26319;SDS011;14024;52.226;5.200;2022-07-04T05:44:42;16.23;;;7.53;;
26319;SDS011;14024;52.226;5.200;2022-07-04T05:47:08;13.52;;;7.80;;
26319;SDS011;14024;52.226;5.200;2022-07-04T05:49:34;21.00;;;9.15;;
26319;SDS011;14024;52.226;5.200;2022-07-04T05:52:00;16.05;;;6.93;;
26319;SDS011;14024;52.226;5.200;2022-07-04T05:54:27;15.63;;;6.88;;
26319;SDS011;14024;52.226;5.200;2022-07-04T05:56:53;16.83;;;7.22;;
26319;SDS011;14024;52.226;5.200;2022-07-04T05:59:18;18.05;;;6.88;;
26319;SDS011;14024;52.226;5.200;2022-07-04T06:01:44;19.08;;;7.60;;
26319;SDS011;14024;52.226;5.200;2022-07-04T06:04:11;23.48;;;7.50;;
26319;SDS011;14024;52.226;5.200;2022-07-04T06:06:36;21.92;;;7.47;;
26319;SDS011;14024;52.226;5.200;2022-07-04T06:09:03;26.38;;;7.57;;
26319;SDS011;14024;52.226;5.200;2022-07-04T06:11:29;17.40;;;7.22;;
26319;SDS011;14024;52.226;5.200;2022-07-04T06:13:55;17.08;;;7.07;;
26319;SDS011;14024;52.226;5.200;2022-07-04T06:16:21;24.83;;;7.45;;
26319;SDS011;14024;52.226;5.200;2022-07-04T06:18:47;18.17;;;6.85;;
26319;SDS011;14024;52.226;5.200;2022-07-04T06:21:13;17.38;;;7.45;;
26319;SDS011;14024;52.226;5.200;2022-07-04T06:23:39;13.18;;;7.28;;
26319;SDS011;14024;52.226;5.200;2022-07-04T06:26:05;23.70;;;7.50;;
26319;SDS011;14024;52.226;5.200;2022-07-04T06:28:31;22.23;;;8.10;;
26319;SDS011;14024;52.226;5.200;2022-07-04T06:30:57;21.73;;;6.80;;
26319;SDS011;14024;52.226;5.200;2022-07-04T06:33:23;19.23;;;7.18;;
26319;SDS011;14024;52.226;5.200;2022-07-04T06:35:49;15.85;;;6.68;;
26319;SDS011;14024;52.226;5.200;2022-07-04T06:38:25;18.33;;;7.13;;
26319;SDS011;14024;52.226;5.200;2022-07-04T06:40:56;15.23;;;6.78;;
26319;SDS011;14024;52.226;5.200;2022-07-04T06:43:22;24.75;;;7.78;;
26319;SDS011;14024;52.226;5.200;2022-07-04T06:45:48;25.25;;;6.90;;
26319;SDS011;14024;52.226;5.200;2022-07-04T06:48:14;17.23;;;7.45;;
26319;SDS011;14024;52.226;5.200;2022-07-04T06:50:40;18.17;;;8.05;;
26319;SDS011;14024;52.226;5.200;2022-07-04T06:53:08;20.55;;;8.35;;
26319;SDS011;14024;52.226;5.200;2022-07-04T06:55:34;17.05;;;7.60;;
26319;SDS011;14024;52.226;5.200;2022-07-04T06:58:01;13.35;;;6.50;;
26319;SDS011;14024;52.226;5.200;2022-07-04T07:00:27;19.30;;;6.78;;
26319;SDS011;14024;52.226;5.200;2022-07-04T07:02:55;22.02;;;6.50;;
26319;SDS011;14024;52.226;5.200;2022-07-04T07:05:22;11.98;;;5.63;;
26319;SDS011;14024;52.226;5.200;2022-07-04T07:07:48;10.68;;;5.05;;
26319;SDS011;14024;52.226;5.200;2022-07-04T07:10:14;22.05;;;6.43;;
26319;SDS011;14024;52.226;5.200;2022-07-04T07:12:40;11.93;;;4.90;;
26319;SDS011;14024;52.226;5.200;2022-07-04T07:15:06;10.20;;;5.22;;
26319;SDS011;14024;52.226;5.200;2022-07-04T07:17:33;11.38;;;4.60;;
26319;SDS011;14024;52.226;5.200;2022-07-04T07:19:59;15.40;;;4.45;;
26319;SDS011;14024;52.226;5.200;2022-07-04T07:22:25;10.02;;;3.63;;
26319;SDS011;14024;52.226;5.200;2022-07-04T07:24:51;11.80;;;4.60;;
26319;SDS011;14024;52.226;5.200;2022-07-04T07:27:17;15.20;;;4.35;;
26319;SDS011;14024;52.226;5.200;2022-07-04T07:29:43;9.23;;;4.00;;
26319;SDS011;14024;52.226;5.200;2022-07-04T07:32:09;8.27;;;3.42;;
26319;SDS011;14024;52.226;5.200;2022-07-04T07:34:35;12.00;;;3.90;;
26319;SDS011;14024;52.226;5.200;2022-07-04T07:37:02;9.75;;;3.67;;
26319;SDS011;14024;52.226;5.200;2022-07-04T07:39:28;11.90;;;3.97;;
26319;SDS011;14024;52.226;5.200;2022-07-04T07:41:54;12.23;;;4.25;;
26319;SDS011;14024;52.226;5.200;2022-07-04T07:44:21;11.23;;;4.03;;
26319;SDS011;14024;52.226;5.200;2022-07-04T07:46:47;7.78;;;3.58;;
26319;SDS011;14024;52.226;5.200;2022-07-04T07:49:13;9.48;;;3.42;;
26319;SDS011;14024;52.226;5.200;2022-07-04T07:51:39;8.23;;;3.40;;
26319;SDS011;14024;52.226;5.200;2022-07-04T07:54:06;6.53;;;3.30;;
26319;SDS011;14024;52.226;5.200;2022-07-04T07:56:32;6.93;;;3.00;;
26319;SDS011;14024;52.226;5.200;2022-07-04T07:58:58;5.85;;;3.10;;
26319;SDS011;14024;52.226;5.200;2022-07-04T08:01:24;4.55;;;2.50;;
26319;SDS011;14024;52.226;5.200;2022-07-04T08:03:50;4.82;;;2.88;;
26319;SDS011;14024;52.226;5.200;2022-07-04T08:06:37;8.55;;;2.42;;
26319;SDS011;14024;52.226;5.200;2022-07-04T08:09:03;6.63;;;2.80;;
26319;SDS011;14024;52.226;5.200;2022-07-04T08:11:30;6.72;;;2.95;;
26319;SDS011;14024;52.226;5.200;2022-07-04T08:13:56;8.13;;;3.17;;
26319;SDS011;14024;52.226;5.200;2022-07-04T08:16:22;9.35;;;3.15;;
26319;SDS011;14024;52.226;5.200;2022-07-04T08:18:48;10.32;;;3.25;;
26319;SDS011;14024;52.226;5.200;2022-07-04T08:21:14;3.92;;;2.45;;
26319;SDS011;14024;52.226;5.200;2022-07-04T08:23:41;7.43;;;2.90;;
26319;SDS011;14024;52.226;5.200;2022-07-04T08:26:07;8.45;;;3.15;;
26319;SDS011;14024;52.226;5.200;2022-07-04T08:28:33;5.35;;;3.47;;
26319;SDS011;14024;52.226;5.200;2022-07-04T08:31:00;7.53;;;3.30;;
26319;SDS011;14024;52.226;5.200;2022-07-04T08:33:26;8.63;;;3.05;;
26319;SDS011;14024;52.226;5.200;2022-07-04T08:35:52;6.30;;;3.08;;
26319;SDS011;14024;52.226;5.200;2022-07-04T08:38:18;3.33;;;2.53;;
26319;SDS011;14024;52.226;5.200;2022-07-04T08:40:45;6.13;;;2.90;;
26319;SDS011;14024;52.226;5.200;2022-07-04T08:43:14;5.15;;;3.30;;
26319;SDS011;14024;52.226;5.200;2022-07-04T08:45:43;7.15;;;2.97;;
26319;SDS011;14024;52.226;5.200;2022-07-04T08:48:13;6.88;;;3.10;;
26319;SDS011;14024;52.226;5.200;2022-07-04T08:53:10;5.45;;;2.45;;
26319;SDS011;14024;52.226;5.200;2022-07-04T08:55:36;9.10;;;2.25;;
26319;SDS011;14024;52.226;5.200;2022-07-04T08:58:21;4.18;;;2.00;;
26319;SDS011;14024;52.226;5.200;2022-07-04T09:01:01;2.80;;;2.10;;
26319;SDS011;14024;52.226;5.200;2022-07-04T09:03:27;3.17;;;2.22;;
26319;SDS011;14024;52.226;5.200;2022-07-04T09:05:54;5.63;;;2.17;;
26319;SDS011;14024;52.226;5.200;2022-07-04T09:08:20;3.90;;;2.20;;
26319;SDS011;14024;52.226;5.200;2022-07-04T09:10:47;4.30;;;2.95;;
26319;SDS011;14024;52.226;5.200;2022-07-04T09:13:14;4.35;;;2.55;;
26319;SDS011;14024;52.226;5.200;2022-07-04T09:15:42;2.80;;;2.28;;
26319;SDS011;14024;52.226;5.200;2022-07-04T09:18:21;3.97;;;1.90;;
26319;SDS011;14024;52.226;5.200;2022-07-04T09:20:48;8.15;;;2.70;;
26319;SDS011;14024;52.226;5.200;2022-07-04T09:23:24;2.67;;;2.33;;
26319;SDS011;14024;52.226;5.200;2022-07-04T09:28:35;5.15;;;3.20;;
26319;SDS011;14024;52.226;5.200;2022-07-04T09:31:01;8.32;;;2.65;;
26319;SDS011;14024;52.226;5.200;2022-07-04T09:33:43;6.50;;;2.83;;
26319;SDS011;14024;52.226;5.200;2022-07-04T09:36:10;3.40;;;2.13;;
26319;SDS011;14024;52.226;5.200;2022-07-04T09:38:36;9.85;;;2.65;;
26319;SDS011;14024;52.226;5.200;2022-07-04T09:41:02;3.15;;;2.25;;
26319;SDS011;14024;52.226;5.200;2022-07-04T09:44:08;3.95;;;2.15;;
26319;SDS011;14024;52.226;5.200;2022-07-04T09:46:33;6.70;;;2.42;;
26319;SDS011;14024;52.226;5.200;2022-07-04T09:48:59;3.55;;;2.00;;
26319;SDS011;14024;52.226;5.200;2022-07-04T09:51:38;3.58;;;2.20;;
26319;SDS011;14024;52.226;5.200;2022-07-04T09:56:43;4.05;;;2.03;;
26319;SDS011;14024;52.226;5.200;2022-07-04T09:59:10;5.28;;;1.73;;
26319;SDS011;14024;52.226;5.200;2022-07-04T10:01:36;5.32;;;1.95;;
26319;SDS011;14024;52.226;5.200;2022-07-04T10:04:04;2.70;;;1.52;;
26319;SDS011;14024;52.226;5.200;2022-07-04T10:06:33;4.65;;;1.80;;
26319;SDS011;14024;52.226;5.200;2022-07-04T10:09:08;1.80;;;1.58;;
26319;SDS011;14024;52.226;5.200;2022-07-04T10:11:34;3.90;;;1.67;;
26319;SDS011;14024;52.226;5.200;2022-07-04T10:14:01;4.43;;;1.80;;
26319;SDS011;14024;52.226;5.200;2022-07-04T10:16:28;4.40;;;1.98;;
26319;SDS011;14024;52.226;5.200;2022-07-04T10:18:55;2.33;;;1.65;;
26319;SDS011;14024;52.226;5.200;2022-07-04T10:21:21;4.57;;;1.65;;
26319;SDS011;14024;52.226;5.200;2022-07-04T10:23:49;4.45;;;2.33;;
26319;SDS011;14024;52.226;5.200;2022-07-04T10:26:20;3.33;;;1.70;;
26319;SDS011;14024;52.226;5.200;2022-07-04T10:28:48;3.92;;;1.60;;
26319;SDS011;14024;52.226;5.200;2022-07-04T10:31:18;3.20;;;1.90;;
26319;SDS011;14024;52.226;5.200;2022-07-04T10:33:45;2.80;;;1.80;;
26319;SDS011;14024;52.226;5.200;2022-07-04T10:36:18;5.90;;;1.83;;
26319;SDS011;14024;52.226;5.200;2022-07-04T10:41:13;2.00;;;1.73;;
26319;SDS011;14024;52.226;5.200;2022-07-04T10:43:52;5.65;;;2.17;;
26319;SDS011;14024;52.226;5.200;2022-07-04T10:46:22;2.10;;;1.75;;
26319;SDS011;14024;52.226;5.200;2022-07-04T10:48:49;2.47;;;1.70;;
26319;SDS011;14024;52.226;5.200;2022-07-04T10:51:15;2.05;;;1.63;;
26319;SDS011;14024;52.226;5.200;2022-07-04T10:53:58;3.17;;;1.97;;
26319;SDS011;14024;52.226;5.200;2022-07-04T10:58:54;2.67;;;1.50;;
26319;SDS011;14024;52.226;5.200;2022-07-04T11:01:20;2.70;;;1.60;;
26319;SDS011;14024;52.226;5.200;2022-07-04T11:03:50;2.60;;;1.60;;
26319;SDS011;14024;52.226;5.200;2022-07-04T11:09:17;5.05;;;1.73;;
26319;SDS011;14024;52.226;5.200;2022-07-04T11:12:02;2.95;;;1.83;;
26319;SDS011;14024;52.226;5.200;2022-07-04T11:14:37;6.05;;;1.67;;
26319;SDS011;14024;52.226;5.200;2022-07-04T11:17:04;3.00;;;1.92;;
26319;SDS011;14024;52.226;5.200;2022-07-04T11:19:30;4.10;;;2.10;;
26319;SDS011;14024;52.226;5.200;2022-07-04T11:21:56;2.63;;;1.70;;
26319;SDS011;14024;52.226;5.200;2022-07-04T11:24:23;5.95;;;1.95;;
26319;SDS011;14024;52.226;5.200;2022-07-04T11:26:49;4.15;;;1.98;;
26319;SDS011;14024;52.226;5.200;2022-07-04T11:29:16;4.57;;;2.08;;
26319;SDS011;14024;52.226;5.200;2022-07-04T11:31:43;5.43;;;1.73;;
26319;SDS011;14024;52.226;5.200;2022-07-04T11:34:09;3.78;;;1.73;;
26319;SDS011;14024;52.226;5.200;2022-07-04T11:36:35;3.17;;;1.95;;
26319;SDS011;14024;52.226;5.200;2022-07-04T11:39:03;2.13;;;1.67;;
26319;SDS011;14024;52.226;5.200;2022-07-04T11:44:16;4.68;;;1.80;;
26319;SDS011;14024;52.226;5.200;2022-07-04T11:47:12;3.40;;;1.70;;
26319;SDS011;14024;52.226;5.200;2022-07-04T11:52:09;2.75;;;1.73;;
26319;SDS011;14024;52.226;5.200;2022-07-04T11:54:35;6.00;;;2.15;;
26319;SDS011;14024;52.226;5.200;2022-07-04T11:57:35;8.10;;;2.28;;
26319;SDS011;14024;52.226;5.200;2022-07-04T12:02:19;4.32;;;1.63;;
26319;SDS011;14024;52.226;5.200;2022-07-04T12:04:46;2.35;;;1.60;;
26319;SDS011;14024;52.226;5.200;2022-07-04T12:07:12;2.17;;;1.50;;
26319;SDS011;14024;52.226;5.200;2022-07-04T12:09:39;4.22;;;1.85;;
26319;SDS011;14024;52.226;5.200;2022-07-04T12:12:06;2.38;;;1.50;;
26319;SDS011;14024;52.226;5.200;2022-07-04T12:14:32;4.85;;;1.83;;
26319;SDS011;14024;52.226;5.200;2022-07-04T12:17:15;2.85;;;1.67;;
26319;SDS011;14024;52.226;5.200;2022-07-04T12:19:54;3.78;;;1.52;;
26319;SDS011;14024;52.226;5.200;2022-07-04T12:22:34;3.30;;;1.55;;
26319;SDS011;14024;52.226;5.200;2022-07-04T12:25:03;3.30;;;1.60;;
26319;SDS011;14024;52.226;5.200;2022-07-04T12:27:29;4.00;;;1.60;;
26319;SDS011;14024;52.226;5.200;2022-07-04T12:29:56;5.55;;;1.80;;
26319;SDS011;14024;52.226;5.200;2022-07-04T12:32:23;3.90;;;1.67;;
26319;SDS011;14024;52.226;5.200;2022-07-04T12:34:49;2.55;;;1.80;;
26319;SDS011;14024;52.226;5.200;2022-07-04T12:37:15;2.78;;;1.70;;
26319;SDS011;14024;52.226;5.200;2022-07-04T12:39:42;4.93;;;2.20;;
26319;SDS011;14024;52.226;5.200;2022-07-04T12:42:16;2.75;;;1.83;;
26319;SDS011;14024;52.226;5.200;2022-07-04T12:47:09;7.55;;;1.85;;
26319;SDS011;14024;52.226;5.200;2022-07-04T12:49:42;2.92;;;1.90;;
26319;SDS011;14024;52.226;5.200;2022-07-04T12:52:12;2.10;;;1.60;;
26319;SDS011;14024;52.226;5.200;2022-07-04T12:54:39;3.72;;;1.58;;
26319;SDS011;14024;52.226;5.200;2022-07-04T12:57:13;3.90;;;1.80;;
26319;SDS011;14024;52.226;5.200;2022-07-04T12:59:39;3.55;;;1.67;;
26319;SDS011;14024;52.226;5.200;2022-07-04T13:02:06;4.70;;;1.88;;
26319;SDS011;14024;52.226;5.200;2022-07-04T13:04:32;6.40;;;1.83;;
26319;SDS011;14024;52.226;5.200;2022-07-04T13:07:01;3.85;;;1.83;;
26319;SDS011;14024;52.226;5.200;2022-07-04T13:09:37;3.17;;;1.70;;
26319;SDS011;14024;52.226;5.200;2022-07-04T13:12:03;5.35;;;2.00;;
26319;SDS011;14024;52.226;5.200;2022-07-04T13:14:48;4.75;;;1.85;;
26319;SDS011;14024;52.226;5.200;2022-07-04T13:17:14;3.58;;;1.58;;
26319;SDS011;14024;52.226;5.200;2022-07-04T13:19:40;8.30;;;2.08;;
26319;SDS011;14024;52.226;5.200;2022-07-04T13:22:06;5.05;;;1.77;;
26319;SDS011;14024;52.226;5.200;2022-07-04T13:24:32;5.32;;;1.90;;
26319;SDS011;14024;52.226;5.200;2022-07-04T13:27:02;4.22;;;1.52;;
26319;SDS011;14024;52.226;5.200;2022-07-04T13:29:28;5.22;;;1.70;;
26319;SDS011;14024;52.226;5.200;2022-07-04T13:31:54;4.45;;;1.85;;
26319;SDS011;14024;52.226;5.200;2022-07-04T13:34:20;2.80;;;1.63;;
26319;SDS011;14024;52.226;5.200;2022-07-04T13:36:46;4.85;;;1.90;;
26319;SDS011;14024;52.226;5.200;2022-07-04T13:39:12;4.05;;;2.08;;
26319;SDS011;14024;52.226;5.200;2022-07-04T13:41:38;4.47;;;1.88;;
26319;SDS011;14024;52.226;5.200;2022-07-04T13:44:05;6.10;;;1.80;;
26319;SDS011;14024;52.226;5.200;2022-07-04T13:46:33;3.58;;;2.20;;
26319;SDS011;14024;52.226;5.200;2022-07-04T13:49:03;5.60;;;1.75;;
26319;SDS011;14024;52.226;5.200;2022-07-04T13:51:29;7.97;;;2.45;;
26319;SDS011;14024;52.226;5.200;2022-07-04T13:53:55;3.28;;;1.52;;
26319;SDS011;14024;52.226;5.200;2022-07-04T13:56:21;4.25;;;1.85;;
26319;SDS011;14024;52.226;5.200;2022-07-04T13:58:48;6.20;;;1.50;;
26319;SDS011;14024;52.226;5.200;2022-07-04T14:01:14;3.22;;;1.67;;
26319;SDS011;14024;52.226;5.200;2022-07-04T14:03:43;2.17;;;1.60;;
26319;SDS011;14024;52.226;5.200;2022-07-04T14:06:09;7.35;;;1.90;;
26319;SDS011;14024;52.226;5.200;2022-07-04T14:08:35;6.93;;;1.70;;
26319;SDS011;14024;52.226;5.200;2022-07-04T14:11:01;5.65;;;2.00;;
26319;SDS011;14024;52.226;5.200;2022-07-04T14:13:27;5.57;;;1.90;;
26319;SDS011;14024;52.226;5.200;2022-07-04T14:15:53;4.47;;;1.83;;
26319;SDS011;14024;52.226;5.200;2022-07-04T14:18:19;9.68;;;2.08;;
26319;SDS011;14024;52.226;5.200;2022-07-04T14:20:45;5.47;;;1.88;;
26319;SDS011;14024;52.226;5.200;2022-07-04T14:23:12;3.08;;;1.55;;
26319;SDS011;14024;52.226;5.200;2022-07-04T14:25:50;2.13;;;1.63;;
26319;SDS011;14024;52.226;5.200;2022-07-04T14:28:16;6.18;;;1.73;;
26319;SDS011;14024;52.226;5.200;2022-07-04T14:30:42;3.67;;;1.60;;
26319;SDS011;14024;52.226;5.200;2022-07-04T14:33:08;3.25;;;1.80;;
26319;SDS011;14024;52.226;5.200;2022-07-04T14:35:34;2.65;;;1.98;;
26319;SDS011;14024;52.226;5.200;2022-07-04T14:38:02;2.33;;;1.60;;
26319;SDS011;14024;52.226;5.200;2022-07-04T14:40:28;4.70;;;1.60;;
26319;SDS011;14024;52.226;5.200;2022-07-04T14:42:54;3.33;;;1.75;;
26319;SDS011;14024;52.226;5.200;2022-07-04T14:45:20;2.70;;;1.70;;
26319;SDS011;14024;52.226;5.200;2022-07-04T14:47:46;2.90;;;1.80;;
26319;SDS011;14024;52.226;5.200;2022-07-04T14:50:12;2.67;;;1.60;;
26319;SDS011;14024;52.226;5.200;2022-07-04T14:52:38;2.58;;;2.03;;
26319;SDS011;14024;52.226;5.200;2022-07-04T14:55:04;4.85;;;2.17;;
26319;SDS011;14024;52.226;5.200;2022-07-04T14:57:31;2.35;;;1.85;;
26319;SDS011;14024;52.226;5.200;2022-07-04T14:59:57;7.65;;;2.50;;
26319;SDS011;14024;52.226;5.200;2022-07-04T15:02:22;6.15;;;1.98;;
26319;SDS011;14024;52.226;5.200;2022-07-04T15:04:48;2.72;;;1.52;;
26319;SDS011;14024;52.226;5.200;2022-07-04T15:07:17;4.60;;;1.80;;
26319;SDS011;14024;52.226;5.200;2022-07-04T15:09:43;3.47;;;2.08;;